sensor_id;sensor_type;location;lat;lon;timestamp;P1;durP1;ratioP1;P2;durP2;ratioP2
18267;SDS011;9260;49.998;19.880;2023-04-03T00:05:46;184.27;;;83.23;;
18267;SDS011;9260;49.998;19.880;2023-04-03T00:15:51;183.53;;;87.43;;
18267;SDS011;9260;49.998;19.880;2023-04-03T00:25:55;181.57;;;84.33;;
18267;SDS011;9260;49.998;19.880;2023-04-03T00:36:01;181.90;;;85.33;;
18267;SDS011;9260;49.998;19.880;2023-04-03T00:46:10;176.50;;;80.13;;
18267;SDS011;9260;49.998;19.880;2023-04-03T00:56:16;176.70;;;82.00;;
18267;SDS011;9260;49.998;19.880;2023-04-03T01:06:24;180.80;;;84.77;;
18267;SDS011;9260;49.998;19.880;2023-04-03T01:16:40;179.97;;;84.77;;
18267;SDS011;9260;49.998;19.880;2023-04-03T01:26:44;177.70;;;85.17;;
18267;SDS011;9260;49.998;19.880;2023-04-03T01:36:49;179.20;;;82.67;;
18267;SDS011;9260;49.998;19.880;2023-04-03T01:46:55;180.70;;;84.70;;
18267;SDS011;9260;49.998;19.880;2023-04-03T01:57:03;178.83;;;84.77;;
18267;SDS011;9260;49.998;19.880;2023-04-03T02:07:07;176.93;;;83.20;;
18267;SDS011;9260;49.998;19.880;2023-04-03T02:17:13;177.40;;;82.87;;
18267;SDS011;9260;49.998;19.880;2023-04-03T02:27:17;181.03;;;85.30;;
18267;SDS011;9260;49.998;19.880;2023-04-03T02:37:23;179.30;;;81.23;;
18267;SDS011;9260;49.998;19.880;2023-04-03T02:47:28;176.53;;;82.87;;
18267;SDS011;9260;49.998;19.880;2023-04-03T02:57:33;172.70;;;80.17;;
18267;SDS011;9260;49.998;19.880;2023-04-03T03:07:38;176.73;;;84.33;;
18267;SDS011;9260;49.998;19.880;2023-04-03T03:17:43;171.70;;;80.47;;
18267;SDS011;9260;49.998;19.880;2023-04-03T03:27:47;176.57;;;86.03;;
18267;SDS011;9260;49.998;19.880;2023-04-03T03:37:52;175.73;;;82.90;;
18267;SDS011;9260;49.998;19.880;2023-04-03T03:47:56;175.23;;;83.83;;
18267;SDS011;9260;49.998;19.880;2023-04-03T03:58:03;173.67;;;82.93;;
18267;SDS011;9260;49.998;19.880;2023-04-03T04:08:08;177.83;;;83.17;;
18267;SDS011;9260;49.998;19.880;2023-04-03T04:18:14;183.37;;;82.97;;
18267;SDS011;9260;49.998;19.880;2023-04-03T04:28:22;187.33;;;85.00;;
18267;SDS011;9260;49.998;19.880;2023-04-03T04:38:30;188.97;;;88.57;;
18267;SDS011;9260;49.998;19.880;2023-04-03T04:48:34;180.93;;;81.40;;
18267;SDS011;9260;49.998;19.880;2023-04-03T04:58:41;182.43;;;83.60;;
18267;SDS011;9260;49.998;19.880;2023-04-03T05:08:45;178.93;;;83.93;;
18267;SDS011;9260;49.998;19.880;2023-04-03T05:18:51;176.67;;;79.77;;
18267;SDS011;9260;49.998;19.880;2023-04-03T05:28:57;175.10;;;78.97;;
18267;SDS011;9260;49.998;19.880;2023-04-03T05:39:03;176.90;;;81.80;;
18267;SDS011;9260;49.998;19.880;2023-04-03T05:49:10;177.03;;;78.23;;
18267;SDS011;9260;49.998;19.880;2023-04-03T05:59:15;180.03;;;84.33;;
18267;SDS011;9260;49.998;19.880;2023-04-03T06:09:19;179.87;;;82.47;;
18267;SDS011;9260;49.998;19.880;2023-04-03T06:19:26;174.97;;;81.03;;
18267;SDS011;9260;49.998;19.880;2023-04-03T06:29:31;174.10;;;77.90;;
18267;SDS011;9260;49.998;19.880;2023-04-03T06:39:36;174.40;;;84.43;;
18267;SDS011;9260;49.998;19.880;2023-04-03T06:49:40;172.00;;;78.87;;
18267;SDS011;9260;49.998;19.880;2023-04-03T06:59:46;182.07;;;82.93;;
18267;SDS011;9260;49.998;19.880;2023-04-03T07:09:51;170.53;;;75.23;;
18267;SDS011;9260;49.998;19.880;2023-04-03T07:19:56;184.30;;;83.43;;
18267;SDS011;9260;49.998;19.880;2023-04-03T07:30:05;182.93;;;85.63;;
18267;SDS011;9260;49.998;19.880;2023-04-03T07:40:11;184.30;;;84.57;;
18267;SDS011;9260;49.998;19.880;2023-04-03T07:50:16;183.83;;;86.23;;
18267;SDS011;9260;49.998;19.880;2023-04-03T08:00:22;184.53;;;84.83;;
18267;SDS011;9260;49.998;19.880;2023-04-03T08:10:26;186.73;;;87.47;;
18267;SDS011;9260;49.998;19.880;2023-04-03T08:20:33;196.10;;;89.80;;
18267;SDS011;9260;49.998;19.880;2023-04-03T08:30:38;201.33;;;94.23;;
18267;SDS011;9260;49.998;19.880;2023-04-03T08:40:45;200.20;;;91.97;;
18267;SDS011;9260;49.998;19.880;2023-04-03T08:50:50;202.00;;;94.23;;
18267;SDS011;9260;49.998;19.880;2023-04-03T09:01:00;199.30;;;90.20;;
18267;SDS011;9260;49.998;19.880;2023-04-03T09:11:08;201.00;;;89.47;;
18267;SDS011;9260;49.998;19.880;2023-04-03T09:21:20;204.10;;;91.30;;
18267;SDS011;9260;49.998;19.880;2023-04-03T09:31:35;198.10;;;90.63;;
18267;SDS011;9260;49.998;19.880;2023-04-03T09:41:54;193.93;;;85.73;;
18267;SDS011;9260;49.998;19.880;2023-04-03T09:52:07;190.17;;;84.37;;
18267;SDS011;9260;49.998;19.880;2023-04-03T10:02:28;190.93;;;88.20;;
18267;SDS011;9260;49.998;19.880;2023-04-03T10:12:38;190.53;;;84.93;;
18267;SDS011;9260;49.998;19.880;2023-04-03T10:22:44;186.80;;;82.10;;
18267;SDS011;9260;49.998;19.880;2023-04-03T10:33:05;184.10;;;83.17;;
18267;SDS011;9260;49.998;19.880;2023-04-03T10:43:30;180.90;;;77.33;;
18267;SDS011;9260;49.998;19.880;2023-04-03T10:53:40;188.40;;;87.87;;
18267;SDS011;9260;49.998;19.880;2023-04-03T11:03:49;186.63;;;83.00;;
18267;SDS011;9260;49.998;19.880;2023-04-03T11:13:57;184.57;;;81.57;;
18267;SDS011;9260;49.998;19.880;2023-04-03T11:24:11;184.87;;;83.03;;
18267;SDS011;9260;49.998;19.880;2023-04-03T11:34:23;184.40;;;82.27;;
18267;SDS011;9260;49.998;19.880;2023-04-03T11:44:39;193.00;;;90.23;;
18267;SDS011;9260;49.998;19.880;2023-04-03T11:54:46;189.17;;;86.90;;
18267;SDS011;9260;49.998;19.880;2023-04-03T12:26:00;203.77;;;93.97;;
18267;SDS011;9260;49.998;19.880;2023-04-03T12:36:09;203.80;;;94.60;;
18267;SDS011;9260;49.998;19.880;2023-04-03T12:46:18;207.23;;;98.00;;
18267;SDS011;9260;49.998;19.880;2023-04-03T12:56:26;201.20;;;94.27;;
18267;SDS011;9260;49.998;19.880;2023-04-03T13:06:37;203.97;;;95.80;;
18267;SDS011;9260;49.998;19.880;2023-04-03T13:16:51;205.10;;;100.53;;
18267;SDS011;9260;49.998;19.880;2023-04-03T13:26:58;196.83;;;91.23;;
18267;SDS011;9260;49.998;19.880;2023-04-03T13:37:02;196.00;;;89.73;;
18267;SDS011;9260;49.998;19.880;2023-04-03T13:47:19;201.23;;;92.57;;
18267;SDS011;9260;49.998;19.880;2023-04-03T13:57:26;198.50;;;87.37;;
18267;SDS011;9260;49.998;19.880;2023-04-03T14:07:32;195.57;;;88.17;;
18267;SDS011;9260;49.998;19.880;2023-04-03T14:17:35;199.90;;;87.20;;
18267;SDS011;9260;49.998;19.880;2023-04-03T14:27:43;201.47;;;89.53;;
18267;SDS011;9260;49.998;19.880;2023-04-03T14:37:49;197.43;;;87.50;;
18267;SDS011;9260;49.998;19.880;2023-04-03T14:47:55;196.23;;;88.53;;
18267;SDS011;9260;49.998;19.880;2023-04-03T14:57:59;191.23;;;82.80;;
18267;SDS011;9260;49.998;19.880;2023-04-03T15:08:04;197.20;;;91.87;;
18267;SDS011;9260;49.998;19.880;2023-04-03T15:18:10;189.63;;;86.23;;
18267;SDS011;9260;49.998;19.880;2023-04-03T15:28:21;190.10;;;82.87;;
18267;SDS011;9260;49.998;19.880;2023-04-03T15:38:30;188.00;;;82.33;;
18267;SDS011;9260;49.998;19.880;2023-04-03T15:48:35;190.33;;;84.30;;
18267;SDS011;9260;49.998;19.880;2023-04-03T15:58:39;187.57;;;84.50;;
18267;SDS011;9260;49.998;19.880;2023-04-03T16:08:44;187.63;;;83.17;;
18267;SDS011;9260;49.998;19.880;2023-04-03T16:18:50;192.47;;;91.97;;
18267;SDS011;9260;49.998;19.880;2023-04-03T16:28:55;189.37;;;90.23;;
18267;SDS011;9260;49.998;19.880;2023-04-03T16:38:59;185.20;;;87.23;;
18267;SDS011;9260;49.998;19.880;2023-04-03T16:49:04;186.93;;;91.03;;
18267;SDS011;9260;49.998;19.880;2023-04-03T16:59:08;186.73;;;85.37;;
18267;SDS011;9260;49.998;19.880;2023-04-03T17:09:13;180.33;;;77.90;;
18267;SDS011;9260;49.998;19.880;2023-04-03T17:19:17;185.40;;;86.07;;
18267;SDS011;9260;49.998;19.880;2023-04-03T17:29:22;188.57;;;87.73;;
18267;SDS011;9260;49.998;19.880;2023-04-03T17:39:26;184.83;;;86.57;;
18267;SDS011;9260;49.998;19.880;2023-04-03T17:49:31;188.63;;;84.17;;
18267;SDS011;9260;49.998;19.880;2023-04-03T17:59:35;183.73;;;88.53;;
18267;SDS011;9260;49.998;19.880;2023-04-03T18:09:40;178.20;;;84.97;;
18267;SDS011;9260;49.998;19.880;2023-04-03T18:19:44;178.37;;;81.10;;
18267;SDS011;9260;49.998;19.880;2023-04-03T18:29:51;182.20;;;82.90;;
18267;SDS011;9260;49.998;19.880;2023-04-03T18:39:57;171.67;;;78.23;;
18267;SDS011;9260;49.998;19.880;2023-04-03T18:50:04;175.10;;;77.43;;
18267;SDS011;9260;49.998;19.880;2023-04-03T19:00:09;173.87;;;76.93;;
18267;SDS011;9260;49.998;19.880;2023-04-03T19:10:15;172.73;;;78.43;;
18267;SDS011;9260;49.998;19.880;2023-04-03T19:20:20;178.27;;;85.87;;
18267;SDS011;9260;49.998;19.880;2023-04-03T19:30:25;172.77;;;80.93;;
18267;SDS011;9260;49.998;19.880;2023-04-03T19:40:29;176.03;;;84.73;;
18267;SDS011;9260;49.998;19.880;2023-04-03T19:50:35;186.63;;;84.53;;
18267;SDS011;9260;49.998;19.880;2023-04-03T20:00:40;193.87;;;90.60;;
18267;SDS011;9260;49.998;19.880;2023-04-03T20:10:45;184.73;;;83.90;;
18267;SDS011;9260;49.998;19.880;2023-04-03T20:20:52;181.63;;;83.80;;
18267;SDS011;9260;49.998;19.880;2023-04-03T20:30:58;177.80;;;81.30;;
18267;SDS011;9260;49.998;19.880;2023-04-03T20:41:03;185.67;;;85.23;;
18267;SDS011;9260;49.998;19.880;2023-04-03T20:51:08;176.90;;;81.13;;
18267;SDS011;9260;49.998;19.880;2023-04-03T21:01:15;179.60;;;83.43;;
18267;SDS011;9260;49.998;19.880;2023-04-03T21:22:23;177.93;;;83.40;;
18267;SDS011;9260;49.998;19.880;2023-04-03T21:32:27;177.17;;;80.70;;
18267;SDS011;9260;49.998;19.880;2023-04-03T21:42:33;176.87;;;82.47;;
18267;SDS011;9260;49.998;19.880;2023-04-03T21:52:37;179.63;;;84.93;;
18267;SDS011;9260;49.998;19.880;2023-04-03T22:02:42;183.37;;;83.20;;
18267;SDS011;9260;49.998;19.880;2023-04-03T22:12:45;183.50;;;84.30;;
18267;SDS011;9260;49.998;19.880;2023-04-03T22:22:51;181.00;;;85.43;;
18267;SDS011;9260;49.998;19.880;2023-04-03T22:32:54;192.47;;;92.30;;
18267;SDS011;9260;49.998;19.880;2023-04-03T22:42:59;182.93;;;85.17;;
18267;SDS011;9260;49.998;19.880;2023-04-03T22:53:03;182.67;;;86.20;;
18267;SDS011;9260;49.998;19.880;2023-04-03T23:03:08;178.87;;;83.80;;
18267;SDS011;9260;49.998;19.880;2023-04-03T23:13:14;178.50;;;80.97;;
18267;SDS011;9260;49.998;19.880;2023-04-03T23:23:20;177.13;;;81.37;;
18267;SDS011;9260;49.998;19.880;2023-04-03T23:33:24;176.30;;;82.67;;
18267;SDS011;9260;49.998;19.880;2023-04-03T23:43:29;177.47;;;83.67;;
18267;SDS011;9260;49.998;19.880;2023-04-03T23:53:33;181.67;;;83.23;;
